logo
Rechercher aéroport 
image banner adimage banner adimage banner ad
image banner ad

BIAR - Akureyri

Situé à Akureyri, Iceland

ICAO - BIAR, IATA - AEY

Données fournies par Airmate  

Information générale

Coordonnées: N65°39'24" W18°4'19"
Élévation : 7 feet MSL.
 
Voir autres Aéroports à Northeast

Données opérationnelles

Special qualification required
Heure actuelle UTC:
Heure actuelle locale:
Météo
TAF: TAF BIAR 201031Z 2012/2112 17005KT 9999 SCT012 BKN030 TX10/2015Z TN03/2103Z
Voir NOTAMs / SUP AIP / TFR affectant cet aéroport [VIEW]
Fréquences de communication: [VIEW]

Pistes:

Identifiant RWYQFULongueur (ft)Largeur (ft)SurfaceLDA (ft)
01356°7874148ASPH
19176°7874148ASPH

Coordonnées de l'aéroport

Adresse: Akureyri Iceland

Vue satellite de BIAR